sensor_id;sensor_type;location;lat;lon;timestamp;P1;durP1;ratioP1;P2;durP2;ratioP2
56599;SDS011;51832;48.152;11.530;2023-04-25T00:02:21;3.13;;;2.00;;
56599;SDS011;51832;48.152;11.530;2023-04-25T00:07:22;3.08;;;1.85;;
56599;SDS011;51832;48.152;11.530;2023-04-25T00:12:22;3.00;;;1.92;;
56599;SDS011;51832;48.152;11.530;2023-04-25T00:17:23;4.78;;;2.38;;
56599;SDS011;51832;48.152;11.530;2023-04-25T00:22:24;2.92;;;1.90;;
56599;SDS011;51832;48.152;11.530;2023-04-25T00:27:25;3.25;;;1.90;;
56599;SDS011;51832;48.152;11.530;2023-04-25T00:32:26;3.63;;;2.10;;
56599;SDS011;51832;48.152;11.530;2023-04-25T00:37:26;3.60;;;2.20;;
56599;SDS011;51832;48.152;11.530;2023-04-25T00:42:27;2.25;;;1.80;;
56599;SDS011;51832;48.152;11.530;2023-04-25T00:47:28;3.97;;;2.28;;
56599;SDS011;51832;48.152;11.530;2023-04-25T00:52:29;2.38;;;2.00;;
56599;SDS011;51832;48.152;11.530;2023-04-25T00:57:29;2.97;;;2.15;;
56599;SDS011;51832;48.152;11.530;2023-04-25T01:02:30;2.95;;;2.08;;
56599;SDS011;51832;48.152;11.530;2023-04-25T01:07:31;3.90;;;2.08;;
56599;SDS011;51832;48.152;11.530;2023-04-25T01:12:32;3.47;;;2.03;;
56599;SDS011;51832;48.152;11.530;2023-04-25T01:17:33;1.98;;;1.60;;
56599;SDS011;51832;48.152;11.530;2023-04-25T01:22:34;3.35;;;2.08;;
56599;SDS011;51832;48.152;11.530;2023-04-25T01:27:35;3.17;;;1.90;;
56599;SDS011;51832;48.152;11.530;2023-04-25T01:32:37;2.63;;;1.90;;
56599;SDS011;51832;48.152;11.530;2023-04-25T01:37:41;3.88;;;2.13;;
56599;SDS011;51832;48.152;11.530;2023-04-25T01:42:43;2.08;;;1.83;;
56599;SDS011;51832;48.152;11.530;2023-04-25T01:47:44;2.70;;;2.00;;
56599;SDS011;51832;48.152;11.530;2023-04-25T01:52:48;2.75;;;2.08;;
56599;SDS011;51832;48.152;11.530;2023-04-25T01:57:49;3.53;;;2.20;;
56599;SDS011;51832;48.152;11.530;2023-04-25T02:02:49;2.45;;;2.08;;
56599;SDS011;51832;48.152;11.530;2023-04-25T02:07:50;2.28;;;2.00;;
56599;SDS011;51832;48.152;11.530;2023-04-25T02:12:51;5.70;;;2.92;;
56599;SDS011;51832;48.152;11.530;2023-04-25T02:17:51;2.72;;;2.10;;
56599;SDS011;51832;48.152;11.530;2023-04-25T02:22:54;3.55;;;2.10;;
56599;SDS011;51832;48.152;11.530;2023-04-25T02:27:55;3.13;;;2.20;;
56599;SDS011;51832;48.152;11.530;2023-04-25T02:32:55;3.33;;;1.90;;
56599;SDS011;51832;48.152;11.530;2023-04-25T02:37:56;4.03;;;2.40;;
56599;SDS011;51832;48.152;11.530;2023-04-25T02:42:56;3.10;;;2.08;;
56599;SDS011;51832;48.152;11.530;2023-04-25T02:47:57;3.05;;;2.50;;
56599;SDS011;51832;48.152;11.530;2023-04-25T02:52:57;3.57;;;2.50;;
56599;SDS011;51832;48.152;11.530;2023-04-25T02:57:57;3.15;;;2.25;;
56599;SDS011;51832;48.152;11.530;2023-04-25T03:02:58;2.45;;;2.10;;
56599;SDS011;51832;48.152;11.530;2023-04-25T03:07:59;4.50;;;2.35;;
56599;SDS011;51832;48.152;11.530;2023-04-25T03:12:59;4.97;;;2.50;;
56599;SDS011;51832;48.152;11.530;2023-04-25T03:17:59;4.27;;;2.17;;
56599;SDS011;51832;48.152;11.530;2023-04-25T03:23:00;4.38;;;2.28;;
56599;SDS011;51832;48.152;11.530;2023-04-25T03:28:00;2.83;;;1.95;;
56599;SDS011;51832;48.152;11.530;2023-04-25T03:33:01;2.67;;;1.90;;
56599;SDS011;51832;48.152;11.530;2023-04-25T03:38:01;3.60;;;1.98;;
56599;SDS011;51832;48.152;11.530;2023-04-25T03:43:01;1.93;;;1.60;;
56599;SDS011;51832;48.152;11.530;2023-04-25T03:48:02;3.40;;;2.00;;
56599;SDS011;51832;48.152;11.530;2023-04-25T03:53:02;5.00;;;1.83;;
56599;SDS011;51832;48.152;11.530;2023-04-25T03:58:03;3.03;;;2.20;;
56599;SDS011;51832;48.152;11.530;2023-04-25T04:03:03;3.15;;;1.40;;
56599;SDS011;51832;48.152;11.530;2023-04-25T04:08:05;2.38;;;1.80;;
56599;SDS011;51832;48.152;11.530;2023-04-25T04:13:06;2.55;;;1.30;;
56599;SDS011;51832;48.152;11.530;2023-04-25T04:18:06;3.22;;;1.70;;
56599;SDS011;51832;48.152;11.530;2023-04-25T04:23:07;2.53;;;1.50;;
56599;SDS011;51832;48.152;11.530;2023-04-25T04:28:07;2.30;;;1.60;;
56599;SDS011;51832;48.152;11.530;2023-04-25T04:33:08;2.47;;;1.50;;
56599;SDS011;51832;48.152;11.530;2023-04-25T04:38:09;2.25;;;1.67;;
56599;SDS011;51832;48.152;11.530;2023-04-25T04:43:10;2.58;;;1.63;;
56599;SDS011;51832;48.152;11.530;2023-04-25T04:48:11;1.75;;;1.33;;
56599;SDS011;51832;48.152;11.530;2023-04-25T04:53:14;2.13;;;1.80;;
56599;SDS011;51832;48.152;11.530;2023-04-25T04:58:14;3.00;;;1.92;;
56599;SDS011;51832;48.152;11.530;2023-04-25T05:03:15;3.28;;;1.95;;
56599;SDS011;51832;48.152;11.530;2023-04-25T05:08:16;4.80;;;2.08;;
56599;SDS011;51832;48.152;11.530;2023-04-25T05:13:16;2.90;;;2.08;;
56599;SDS011;51832;48.152;11.530;2023-04-25T05:18:16;3.70;;;2.40;;
56599;SDS011;51832;48.152;11.530;2023-04-25T05:23:17;3.58;;;2.22;;
56599;SDS011;51832;48.152;11.530;2023-04-25T05:28:17;4.50;;;2.50;;
56599;SDS011;51832;48.152;11.530;2023-04-25T05:33:18;3.60;;;1.73;;
56599;SDS011;51832;48.152;11.530;2023-04-25T05:38:18;2.97;;;2.10;;
56599;SDS011;51832;48.152;11.530;2023-04-25T05:43:19;6.32;;;2.20;;
56599;SDS011;51832;48.152;11.530;2023-04-25T05:48:19;6.65;;;2.35;;
56599;SDS011;51832;48.152;11.530;2023-04-25T05:53:20;3.00;;;1.95;;
56599;SDS011;51832;48.152;11.530;2023-04-25T05:58:21;2.40;;;1.80;;
56599;SDS011;51832;48.152;11.530;2023-04-25T06:03:22;3.42;;;2.00;;
56599;SDS011;51832;48.152;11.530;2023-04-25T06:08:22;3.70;;;2.10;;
56599;SDS011;51832;48.152;11.530;2023-04-25T06:13:23;3.28;;;1.90;;
56599;SDS011;51832;48.152;11.530;2023-04-25T06:18:23;4.07;;;2.20;;
56599;SDS011;51832;48.152;11.530;2023-04-25T06:23:24;2.33;;;1.92;;
56599;SDS011;51832;48.152;11.530;2023-04-25T06:28:24;5.43;;;2.20;;
56599;SDS011;51832;48.152;11.530;2023-04-25T06:33:25;3.80;;;2.55;;
56599;SDS011;51832;48.152;11.530;2023-04-25T06:38:26;6.22;;;2.60;;
56599;SDS011;51832;48.152;11.530;2023-04-25T06:43:27;5.38;;;2.80;;
56599;SDS011;51832;48.152;11.530;2023-04-25T06:48:27;3.58;;;2.60;;
56599;SDS011;51832;48.152;11.530;2023-04-25T06:53:28;4.90;;;2.90;;
56599;SDS011;51832;48.152;11.530;2023-04-25T06:58:28;4.78;;;2.85;;
56599;SDS011;51832;48.152;11.530;2023-04-25T07:03:29;3.10;;;2.30;;
56599;SDS011;51832;48.152;11.530;2023-04-25T07:08:30;4.35;;;2.90;;
56599;SDS011;51832;48.152;11.530;2023-04-25T07:13:31;3.00;;;2.20;;
56599;SDS011;51832;48.152;11.530;2023-04-25T07:18:31;3.50;;;2.70;;
56599;SDS011;51832;48.152;11.530;2023-04-25T07:23:31;3.95;;;3.03;;
56599;SDS011;51832;48.152;11.530;2023-04-25T07:28:32;5.95;;;2.08;;
56599;SDS011;51832;48.152;11.530;2023-04-25T07:33:33;3.30;;;2.30;;
56599;SDS011;51832;48.152;11.530;2023-04-25T07:38:33;3.70;;;2.30;;
56599;SDS011;51832;48.152;11.530;2023-04-25T07:43:34;3.10;;;2.55;;
56599;SDS011;51832;48.152;11.530;2023-04-25T07:48:34;7.07;;;3.00;;
56599;SDS011;51832;48.152;11.530;2023-04-25T07:53:35;4.63;;;2.50;;
56599;SDS011;51832;48.152;11.530;2023-04-25T07:58:37;5.43;;;2.63;;
56599;SDS011;51832;48.152;11.530;2023-04-25T08:03:37;3.17;;;2.53;;
56599;SDS011;51832;48.152;11.530;2023-04-25T08:08:38;3.28;;;2.78;;
56599;SDS011;51832;48.152;11.530;2023-04-25T08:13:39;4.50;;;2.30;;
56599;SDS011;51832;48.152;11.530;2023-04-25T08:18:40;3.40;;;2.50;;
56599;SDS011;51832;48.152;11.530;2023-04-25T08:23:40;3.67;;;2.10;;
56599;SDS011;51832;48.152;11.530;2023-04-25T08:28:41;3.13;;;2.15;;
56599;SDS011;51832;48.152;11.530;2023-04-25T08:33:41;5.70;;;2.50;;
56599;SDS011;51832;48.152;11.530;2023-04-25T08:38:41;6.85;;;1.98;;
56599;SDS011;51832;48.152;11.530;2023-04-25T08:43:42;2.38;;;1.70;;
56599;SDS011;51832;48.152;11.530;2023-04-25T08:48:44;4.57;;;2.53;;
56599;SDS011;51832;48.152;11.530;2023-04-25T08:53:46;3.20;;;2.00;;
56599;SDS011;51832;48.152;11.530;2023-04-25T08:58:50;2.08;;;1.70;;
56599;SDS011;51832;48.152;11.530;2023-04-25T09:03:51;3.53;;;1.75;;
56599;SDS011;51832;48.152;11.530;2023-04-25T09:08:51;2.65;;;1.67;;
56599;SDS011;51832;48.152;11.530;2023-04-25T09:13:52;3.63;;;1.60;;
56599;SDS011;51832;48.152;11.530;2023-04-25T09:19:23;1.83;;;1.45;;
56599;SDS011;51832;48.152;11.530;2023-04-25T09:24:36;2.05;;;1.50;;
56599;SDS011;51832;48.152;11.530;2023-04-25T09:29:40;1.55;;;1.45;;
56599;SDS011;51832;48.152;11.530;2023-04-25T09:34:42;2.47;;;2.00;;
56599;SDS011;51832;48.152;11.530;2023-04-25T09:39:44;4.63;;;1.83;;
56599;SDS011;51832;48.152;11.530;2023-04-25T09:44:47;2.22;;;1.55;;
56599;SDS011;51832;48.152;11.530;2023-04-25T09:49:47;2.55;;;1.48;;
56599;SDS011;51832;48.152;11.530;2023-04-25T09:54:48;2.85;;;1.50;;
56599;SDS011;51832;48.152;11.530;2023-04-25T09:59:51;2.65;;;1.50;;
56599;SDS011;51832;48.152;11.530;2023-04-25T10:04:54;2.72;;;1.55;;
56599;SDS011;51832;48.152;11.530;2023-04-25T10:10:02;2.53;;;1.42;;
56599;SDS011;51832;48.152;11.530;2023-04-25T10:15:04;2.15;;;1.50;;
56599;SDS011;51832;48.152;11.530;2023-04-25T10:20:06;2.35;;;1.60;;
56599;SDS011;51832;48.152;11.530;2023-04-25T10:25:10;2.05;;;1.50;;
56599;SDS011;51832;48.152;11.530;2023-04-25T10:30:14;2.00;;;1.60;;
56599;SDS011;51832;48.152;11.530;2023-04-25T10:40:18;3.72;;;1.33;;
56599;SDS011;51832;48.152;11.530;2023-04-25T10:45:22;1.75;;;1.20;;
56599;SDS011;51832;48.152;11.530;2023-04-25T10:50:23;2.35;;;1.38;;
56599;SDS011;51832;48.152;11.530;2023-04-25T10:55:50;1.77;;;1.55;;
56599;SDS011;51832;48.152;11.530;2023-04-25T11:00:51;2.50;;;1.63;;
56599;SDS011;51832;48.152;11.530;2023-04-25T11:05:52;3.55;;;1.35;;
56599;SDS011;51832;48.152;11.530;2023-04-25T11:10:53;1.23;;;1.13;;
56599;SDS011;51832;48.152;11.530;2023-04-25T11:15:54;1.20;;;1.10;;
56599;SDS011;51832;48.152;11.530;2023-04-25T11:20:55;3.60;;;1.25;;
56599;SDS011;51832;48.152;11.530;2023-04-25T11:25:55;1.30;;;1.05;;
56599;SDS011;51832;48.152;11.530;2023-04-25T11:30:56;3.15;;;1.42;;
56599;SDS011;51832;48.152;11.530;2023-04-25T11:35:57;1.70;;;1.10;;
56599;SDS011;51832;48.152;11.530;2023-04-25T11:40:58;1.80;;;1.42;;
56599;SDS011;51832;48.152;11.530;2023-04-25T11:45:58;1.48;;;1.38;;
56599;SDS011;51832;48.152;11.530;2023-04-25T11:50:59;2.40;;;1.35;;
56599;SDS011;51832;48.152;11.530;2023-04-25T11:56:00;2.90;;;1.88;;
56599;SDS011;51832;48.152;11.530;2023-04-25T12:01:01;1.20;;;1.00;;
56599;SDS011;51832;48.152;11.530;2023-04-25T12:06:03;2.53;;;1.20;;
56599;SDS011;51832;48.152;11.530;2023-04-25T12:11:04;1.13;;;0.95;;
56599;SDS011;51832;48.152;11.530;2023-04-25T12:16:04;1.33;;;1.10;;
56599;SDS011;51832;48.152;11.530;2023-04-25T12:21:05;1.02;;;0.88;;
56599;SDS011;51832;48.152;11.530;2023-04-25T12:26:06;1.05;;;0.90;;
56599;SDS011;51832;48.152;11.530;2023-04-25T12:31:07;1.60;;;0.80;;
56599;SDS011;51832;48.152;11.530;2023-04-25T12:36:08;1.50;;;1.20;;
56599;SDS011;51832;48.152;11.530;2023-04-25T12:41:09;0.98;;;0.90;;
56599;SDS011;51832;48.152;11.530;2023-04-25T12:46:10;0.98;;;0.98;;
56599;SDS011;51832;48.152;11.530;2023-04-25T12:51:10;1.92;;;1.23;;
56599;SDS011;51832;48.152;11.530;2023-04-25T12:56:11;1.30;;;1.13;;
56599;SDS011;51832;48.152;11.530;2023-04-25T13:01:11;1.45;;;0.95;;
56599;SDS011;51832;48.152;11.530;2023-04-25T13:06:14;1.00;;;0.90;;
56599;SDS011;51832;48.152;11.530;2023-04-25T13:11:15;1.20;;;0.98;;
56599;SDS011;51832;48.152;11.530;2023-04-25T13:16:15;1.48;;;0.90;;
56599;SDS011;51832;48.152;11.530;2023-04-25T13:21:15;1.38;;;0.98;;
56599;SDS011;51832;48.152;11.530;2023-04-25T13:26:16;1.20;;;1.10;;
56599;SDS011;51832;48.152;11.530;2023-04-25T13:31:16;1.58;;;1.27;;
56599;SDS011;51832;48.152;11.530;2023-04-25T13:36:17;1.37;;;1.10;;
56599;SDS011;51832;48.152;11.530;2023-04-25T13:41:17;1.35;;;1.00;;
56599;SDS011;51832;48.152;11.530;2023-04-25T13:46:18;0.80;;;0.80;;
56599;SDS011;51832;48.152;11.530;2023-04-25T13:51:19;1.25;;;0.90;;
56599;SDS011;51832;48.152;11.530;2023-04-25T13:56:20;1.73;;;1.10;;
56599;SDS011;51832;48.152;11.530;2023-04-25T14:01:22;1.10;;;0.98;;
56599;SDS011;51832;48.152;11.530;2023-04-25T14:06:22;1.98;;;1.35;;
56599;SDS011;51832;48.152;11.530;2023-04-25T14:11:23;1.60;;;1.30;;
56599;SDS011;51832;48.152;11.530;2023-04-25T14:16:25;1.30;;;1.17;;
56599;SDS011;51832;48.152;11.530;2023-04-25T14:21:26;1.73;;;1.25;;
56599;SDS011;51832;48.152;11.530;2023-04-25T14:26:26;0.80;;;0.80;;
56599;SDS011;51832;48.152;11.530;2023-04-25T14:31:27;0.70;;;0.70;;
56599;SDS011;51832;48.152;11.530;2023-04-25T14:36:27;0.75;;;0.75;;
56599;SDS011;51832;48.152;11.530;2023-04-25T14:41:28;2.05;;;1.20;;
56599;SDS011;51832;48.152;11.530;2023-04-25T14:46:29;1.75;;;1.10;;
56599;SDS011;51832;48.152;11.530;2023-04-25T14:51:29;0.82;;;0.82;;
56599;SDS011;51832;48.152;11.530;2023-04-25T14:56:30;0.75;;;0.63;;
56599;SDS011;51832;48.152;11.530;2023-04-25T15:01:31;0.68;;;0.68;;
56599;SDS011;51832;48.152;11.530;2023-04-25T15:06:31;1.33;;;0.80;;
56599;SDS011;51832;48.152;11.530;2023-04-25T15:11:32;0.95;;;0.70;;
56599;SDS011;51832;48.152;11.530;2023-04-25T15:16:32;1.23;;;1.00;;
56599;SDS011;51832;48.152;11.530;2023-04-25T15:21:33;1.10;;;1.02;;
56599;SDS011;51832;48.152;11.530;2023-04-25T15:26:33;2.33;;;1.35;;
56599;SDS011;51832;48.152;11.530;2023-04-25T15:31:34;2.00;;;1.08;;
56599;SDS011;51832;48.152;11.530;2023-04-25T15:36:34;1.73;;;1.10;;
56599;SDS011;51832;48.152;11.530;2023-04-25T15:41:35;1.52;;;1.40;;
56599;SDS011;51832;48.152;11.530;2023-04-25T15:46:37;1.27;;;1.13;;
56599;SDS011;51832;48.152;11.530;2023-04-25T15:51:37;1.38;;;1.20;;
56599;SDS011;51832;48.152;11.530;2023-04-25T15:56:38;1.75;;;1.00;;
56599;SDS011;51832;48.152;11.530;2023-04-25T16:01:38;1.60;;;1.25;;
56599;SDS011;51832;48.152;11.530;2023-04-25T16:06:39;1.48;;;1.38;;
56599;SDS011;51832;48.152;11.530;2023-04-25T16:11:41;1.70;;;1.60;;
56599;SDS011;51832;48.152;11.530;2023-04-25T16:16:41;1.90;;;1.65;;
56599;SDS011;51832;48.152;11.530;2023-04-25T16:21:43;1.98;;;1.55;;
56599;SDS011;51832;48.152;11.530;2023-04-25T16:26:44;1.60;;;1.50;;
56599;SDS011;51832;48.152;11.530;2023-04-25T16:31:44;2.22;;;1.73;;
56599;SDS011;51832;48.152;11.530;2023-04-25T16:36:46;5.05;;;2.35;;
56599;SDS011;51832;48.152;11.530;2023-04-25T16:41:47;4.82;;;2.28;;
56599;SDS011;51832;48.152;11.530;2023-04-25T16:46:47;3.05;;;2.00;;
56599;SDS011;51832;48.152;11.530;2023-04-25T16:51:48;3.35;;;2.10;;
56599;SDS011;51832;48.152;11.530;2023-04-25T16:56:48;2.80;;;1.95;;
56599;SDS011;51832;48.152;11.530;2023-04-25T17:01:48;2.47;;;1.90;;
56599;SDS011;51832;48.152;11.530;2023-04-25T17:06:49;3.75;;;2.40;;
56599;SDS011;51832;48.152;11.530;2023-04-25T17:11:50;4.30;;;2.30;;
56599;SDS011;51832;48.152;11.530;2023-04-25T17:16:50;3.60;;;2.47;;
56599;SDS011;51832;48.152;11.530;2023-04-25T17:21:51;3.58;;;2.70;;
56599;SDS011;51832;48.152;11.530;2023-04-25T17:26:51;3.25;;;2.65;;
56599;SDS011;51832;48.152;11.530;2023-04-25T17:31:52;3.88;;;3.15;;
56599;SDS011;51832;48.152;11.530;2023-04-25T17:36:52;4.53;;;3.13;;
56599;SDS011;51832;48.152;11.530;2023-04-25T17:41:53;5.45;;;3.35;;
56599;SDS011;51832;48.152;11.530;2023-04-25T17:46:54;4.57;;;3.13;;
56599;SDS011;51832;48.152;11.530;2023-04-25T17:51:54;3.30;;;2.60;;
56599;SDS011;51832;48.152;11.530;2023-04-25T17:56:55;3.00;;;2.58;;
56599;SDS011;51832;48.152;11.530;2023-04-25T18:01:56;3.72;;;2.85;;
56599;SDS011;51832;48.152;11.530;2023-04-25T18:06:58;3.97;;;2.70;;
56599;SDS011;51832;48.152;11.530;2023-04-25T18:11:59;2.15;;;1.40;;
56599;SDS011;51832;48.152;11.530;2023-04-25T18:17:00;1.40;;;1.10;;
56599;SDS011;51832;48.152;11.530;2023-04-25T18:22:03;1.83;;;1.20;;
56599;SDS011;51832;48.152;11.530;2023-04-25T18:27:03;1.77;;;1.40;;
56599;SDS011;51832;48.152;11.530;2023-04-25T18:32:04;2.28;;;1.58;;
56599;SDS011;51832;48.152;11.530;2023-04-25T18:37:05;2.42;;;2.00;;
56599;SDS011;51832;48.152;11.530;2023-04-25T18:42:05;4.20;;;2.00;;
56599;SDS011;51832;48.152;11.530;2023-04-25T18:47:07;4.38;;;2.42;;
56599;SDS011;51832;48.152;11.530;2023-04-25T18:52:09;4.03;;;2.88;;
56599;SDS011;51832;48.152;11.530;2023-04-25T18:57:14;4.05;;;3.00;;
56599;SDS011;51832;48.152;11.530;2023-04-25T19:02:16;3.37;;;2.57;;
56599;SDS011;51832;48.152;11.530;2023-04-25T19:07:17;5.45;;;3.38;;
56599;SDS011;51832;48.152;11.530;2023-04-25T19:12:19;4.60;;;3.25;;
56599;SDS011;51832;48.152;11.530;2023-04-25T19:17:21;5.82;;;3.08;;
56599;SDS011;51832;48.152;11.530;2023-04-25T19:22:21;5.78;;;2.97;;
56599;SDS011;51832;48.152;11.530;2023-04-25T19:27:22;4.78;;;3.00;;
56599;SDS011;51832;48.152;11.530;2023-04-25T19:32:24;4.90;;;3.33;;
56599;SDS011;51832;48.152;11.530;2023-04-25T19:37:25;6.32;;;3.35;;
56599;SDS011;51832;48.152;11.530;2023-04-25T19:42:26;6.78;;;3.92;;
56599;SDS011;51832;48.152;11.530;2023-04-25T19:47:26;5.17;;;3.33;;
56599;SDS011;51832;48.152;11.530;2023-04-25T19:52:27;6.47;;;3.95;;
56599;SDS011;51832;48.152;11.530;2023-04-25T19:57:27;5.43;;;3.40;;
56599;SDS011;51832;48.152;11.530;2023-04-25T20:02:32;5.20;;;3.08;;
56599;SDS011;51832;48.152;11.530;2023-04-25T20:07:32;6.07;;;3.53;;
56599;SDS011;51832;48.152;11.530;2023-04-25T20:12:33;4.25;;;3.38;;
56599;SDS011;51832;48.152;11.530;2023-04-25T20:17:39;5.60;;;3.90;;
56599;SDS011;51832;48.152;11.530;2023-04-25T20:22:41;5.90;;;3.42;;
56599;SDS011;51832;48.152;11.530;2023-04-25T20:27:41;6.28;;;4.60;;
56599;SDS011;51832;48.152;11.530;2023-04-25T20:32:42;5.13;;;3.93;;
56599;SDS011;51832;48.152;11.530;2023-04-25T20:37:42;4.57;;;3.00;;
56599;SDS011;51832;48.152;11.530;2023-04-25T20:42:42;6.15;;;4.40;;
56599;SDS011;51832;48.152;11.530;2023-04-25T20:47:43;4.35;;;3.58;;
56599;SDS011;51832;48.152;11.530;2023-04-25T20:52:43;6.75;;;4.15;;
56599;SDS011;51832;48.152;11.530;2023-04-25T20:57:44;6.75;;;4.30;;
56599;SDS011;51832;48.152;11.530;2023-04-25T21:02:44;7.90;;;4.25;;
56599;SDS011;51832;48.152;11.530;2023-04-25T21:07:45;5.80;;;3.78;;
56599;SDS011;51832;48.152;11.530;2023-04-25T21:12:46;7.70;;;4.22;;
56599;SDS011;51832;48.152;11.530;2023-04-25T21:17:48;6.32;;;3.75;;
56599;SDS011;51832;48.152;11.530;2023-04-25T21:22:50;6.63;;;4.28;;
56599;SDS011;51832;48.152;11.530;2023-04-25T21:27:50;6.40;;;3.50;;
56599;SDS011;51832;48.152;11.530;2023-04-25T21:32:52;7.20;;;4.60;;
56599;SDS011;51832;48.152;11.530;2023-04-25T21:37:52;7.05;;;3.88;;
56599;SDS011;51832;48.152;11.530;2023-04-25T21:42:53;6.13;;;3.63;;
56599;SDS011;51832;48.152;11.530;2023-04-25T21:47:53;5.97;;;3.42;;
56599;SDS011;51832;48.152;11.530;2023-04-25T21:52:54;5.35;;;3.55;;
56599;SDS011;51832;48.152;11.530;2023-04-25T21:57:57;6.43;;;3.42;;
56599;SDS011;51832;48.152;11.530;2023-04-25T22:02:58;5.25;;;3.30;;
56599;SDS011;51832;48.152;11.530;2023-04-25T22:07:59;5.45;;;3.60;;
56599;SDS011;51832;48.152;11.530;2023-04-25T22:12:59;6.00;;;3.65;;
56599;SDS011;51832;48.152;11.530;2023-04-25T22:18:00;5.45;;;3.17;;
56599;SDS011;51832;48.152;11.530;2023-04-25T22:23:02;7.23;;;4.53;;
56599;SDS011;51832;48.152;11.530;2023-04-25T22:28:03;6.28;;;3.85;;
56599;SDS011;51832;48.152;11.530;2023-04-25T22:33:04;7.70;;;4.00;;
56599;SDS011;51832;48.152;11.530;2023-04-25T22:38:04;7.60;;;4.10;;
56599;SDS011;51832;48.152;11.530;2023-04-25T22:43:05;7.18;;;3.85;;
56599;SDS011;51832;48.152;11.530;2023-04-25T22:48:05;6.68;;;4.63;;
56599;SDS011;51832;48.152;11.530;2023-04-25T22:53:06;8.55;;;4.03;;
56599;SDS011;51832;48.152;11.530;2023-04-25T22:58:09;7.20;;;4.43;;
56599;SDS011;51832;48.152;11.530;2023-04-25T23:03:09;7.00;;;4.35;;
56599;SDS011;51832;48.152;11.530;2023-04-25T23:08:09;7.28;;;4.60;;
56599;SDS011;51832;48.152;11.530;2023-04-25T23:13:10;9.93;;;5.40;;
56599;SDS011;51832;48.152;11.530;2023-04-25T23:18:10;9.30;;;5.32;;
56599;SDS011;51832;48.152;11.530;2023-04-25T23:23:11;9.55;;;5.47;;
56599;SDS011;51832;48.152;11.530;2023-04-25T23:28:11;13.30;;;6.30;;
56599;SDS011;51832;48.152;11.530;2023-04-25T23:33:12;12.32;;;6.05;;
56599;SDS011;51832;48.152;11.530;2023-04-25T23:38:12;11.20;;;6.22;;
56599;SDS011;51832;48.152;11.530;2023-04-25T23:43:15;9.07;;;5.80;;
56599;SDS011;51832;48.152;11.530;2023-04-25T23:48:15;13.15;;;6.85;;
56599;SDS011;51832;48.152;11.530;2023-04-25T23:53:16;12.95;;;6.78;;
56599;SDS011;51832;48.152;11.530;2023-04-25T23:58:16;11.45;;;6.38;;
